Time;durP1;ratioP1;P1;durP2;ratioP2;P2;SDS_P1;SDS_P2;PMS_P1;PMS_P2;Temp;Humidity;BMP_temperature;BMP_pressure;BME280_temperature;BME280_humidity;BME280_pressure;Samples;Min_cycle;Max_cycle;Signal;HPM_P1;HPM_P2
2023/05/14 00:01:59;;;;;;;10.30;9.50;;;14.20;1.00;;;;;;4992846;28;20509;-78
2023/05/14 00:04:28;;;;;;;10.03;9.27;;;14.20;1.00;;;;;;4991885;28;20434;-78
2023/05/14 00:06:57;;;;;;;12.70;9.83;;;14.20;1.00;;;;;;4989334;28;20447;-79
2023/05/14 00:09:24;;;;;;;11.73;10.67;;;14.20;1.00;;;;;;4994398;28;20461;-78
2023/05/14 00:11:51;;;;;;;12.07;10.87;;;14.10;1.00;;;;;;4993787;28;20616;-79
2023/05/14 00:14:18;;;;;;;13.60;11.00;;;14.10;1.00;;;;;;4988583;28;21061;-80
2023/05/14 00:16:45;;;;;;;11.33;10.50;;;14.10;1.00;;;;;;4993217;28;20530;-78
2023/05/14 00:19:12;;;;;;;12.60;10.30;;;14.00;1.00;;;;;;4989976;28;20510;-79
2023/05/14 00:21:39;;;;;;;10.30;9.30;;;14.00;1.00;;;;;;4988660;28;20464;-79
2023/05/14 00:24:08;;;;;;;11.83;10.73;;;14.00;1.00;;;;;;4991548;28;21373;-78
2023/05/14 00:26:36;;;;;;;14.07;10.13;;;13.90;1.00;;;;;;4987690;28;20455;-79
2023/05/14 00:29:03;;;;;;;11.70;10.70;;;13.90;1.00;;;;;;4990927;28;20470;-78
2023/05/14 00:31:30;;;;;;;11.17;10.27;;;13.90;1.00;;;;;;4988563;28;20557;-78
2023/05/14 00:34:00;;;;;;;10.20;9.40;;;13.80;1.00;;;;;;4986742;28;20448;-78
2023/05/14 00:36:27;;;;;;;12.10;11.20;;;13.80;1.00;;;;;;4989742;28;20480;-78
2023/05/14 00:38:54;;;;;;;11.13;10.13;;;13.70;1.00;;;;;;4987456;28;20590;-79
2023/05/14 00:41:23;;;;;;;10.87;9.97;;;13.70;1.00;;;;;;4991888;28;20479;-79
2023/05/14 00:43:53;;;;;;;11.20;10.33;;;13.70;1.00;;;;;;4990187;28;20570;-78
2023/05/14 00:46:20;;;;;;;10.43;9.37;;;13.70;1.00;;;;;;4986307;28;20516;-78
2023/05/14 00:48:48;;;;;;;10.60;9.70;;;13.70;1.00;;;;;;4990849;28;20569;-78
2023/05/14 00:51:16;;;;;;;11.50;9.37;;;13.80;1.00;;;;;;4986311;28;20450;-78
2023/05/14 00:53:43;;;;;;;9.70;8.90;;;13.80;1.00;;;;;;4991894;28;20474;-79
2023/05/14 00:56:11;;;;;;;13.07;12.00;;;13.70;1.00;;;;;;4990725;28;20517;-79
2023/05/14 00:58:39;;;;;;;9.67;8.93;;;13.70;1.00;;;;;;4989345;28;20494;-79
2023/05/14 01:01:07;;;;;;;11.10;10.00;;;13.60;1.00;;;;;;4987813;28;20430;-79
2023/05/14 01:03:35;;;;;;;10.50;9.70;;;13.60;1.00;;;;;;4988342;28;20482;-79
2023/05/14 01:06:11;;;;;;;10.07;9.03;;;13.60;1.00;;;;;;4987707;28;20521;-79
2023/05/14 01:08:50;;;;;;;9.50;8.70;;;13.60;1.00;;;;;;4976203;28;20470;-79
2023/05/14 01:11:22;;;;;;;9.90;9.10;;;13.60;1.00;;;;;;4964308;28;20477;-79
2023/05/14 01:13:58;;;;;;;9.40;8.60;;;13.60;1.00;;;;;;4988841;28;21610;-79
2023/05/14 01:16:28;;;;;;;9.60;8.80;;;13.60;1.00;;;;;;4988723;28;20465;-78
2023/05/14 01:18:57;;;;;;;9.73;8.73;;;13.60;1.00;;;;;;4989798;28;20581;-80
2023/05/14 01:21:39;;;;;;;8.53;7.83;;;13.60;1.00;;;;;;4989080;28;20513;-78
2023/05/14 01:24:06;;;;;;;9.83;8.67;;;13.70;1.00;;;;;;4990329;28;20533;-79
2023/05/14 01:26:35;;;;;;;9.53;8.73;;;13.70;1.00;;;;;;4991371;28;20497;-79
2023/05/14 01:29:08;;;;;;;9.07;8.17;;;13.70;1.00;;;;;;4991781;28;20484;-79
2023/05/14 01:31:38;;;;;;;9.20;8.40;;;13.80;1.00;;;;;;4986298;28;20907;-78
2023/05/14 01:34:06;;;;;;;8.63;7.83;;;13.80;1.00;;;;;;4988647;28;20474;-79
2023/05/14 01:36:36;;;;;;;9.87;8.97;;;13.80;1.00;;;;;;4982682;28;20482;-79
2023/05/14 01:39:03;;;;;;;8.73;7.93;;;13.80;1.00;;;;;;4983767;28;20525;-81
2023/05/14 01:41:31;;;;;;;9.10;8.30;;;13.80;1.00;;;;;;4987683;28;20986;-78
2023/05/14 01:43:58;;;;;;;9.33;8.53;;;13.80;1.00;;;;;;4987539;28;20505;-79
2023/05/14 01:46:25;;;;;;;11.13;8.60;;;13.90;1.00;;;;;;4987627;28;20440;-79
2023/05/14 01:48:52;;;;;;;8.73;8.03;;;13.90;1.00;;;;;;4991765;28;20466;-77
2023/05/14 01:51:19;;;;;;;9.80;9.00;;;13.90;1.00;;;;;;4990426;28;20518;-78
2023/05/14 01:53:48;;;;;;;8.27;7.67;;;13.90;1.00;;;;;;4986005;28;20953;-78
2023/05/14 01:56:14;;;;;;;9.03;8.33;;;13.90;1.00;;;;;;4987831;28;20499;-78
2023/05/14 01:58:41;;;;;;;8.63;7.93;;;14.00;1.00;;;;;;4990764;28;20576;-78
2023/05/14 02:01:08;;;;;;;8.77;8.17;;;13.90;1.00;;;;;;4985069;28;20466;-78
2023/05/14 02:03:35;;;;;;;9.27;8.43;;;14.00;1.00;;;;;;4986932;28;20512;-78
2023/05/14 02:06:02;;;;;;;8.30;7.67;;;14.00;1.00;;;;;;4989624;28;20472;-79
2023/05/14 02:08:29;;;;;;;10.13;8.37;;;14.00;1.00;;;;;;4989110;28;20562;-78
2023/05/14 02:10:57;;;;;;;9.00;8.20;;;14.10;1.00;;;;;;4984805;28;20559;-79
2023/05/14 02:13:26;;;;;;;8.30;7.53;;;14.10;1.00;;;;;;4990718;28;20480;-77
2023/05/14 02:15:54;;;;;;;8.50;7.73;;;14.10;1.00;;;;;;4987984;28;20517;-78
2023/05/14 02:18:23;;;;;;;8.03;7.30;;;14.20;1.00;;;;;;4989183;28;20525;-79
2023/05/14 02:20:50;;;;;;;9.33;8.47;;;14.20;1.00;;;;;;4987345;28;20554;-78
2023/05/14 02:23:17;;;;;;;8.63;7.83;;;14.20;1.00;;;;;;4985126;28;20477;-79
2023/05/14 02:25:44;;;;;;;10.63;7.47;;;14.20;1.00;;;;;;4985017;28;20463;-79
2023/05/14 02:28:12;;;;;;;8.40;7.80;;;14.20;1.00;;;;;;4990326;28;20435;-78
2023/05/14 02:30:40;;;;;;;12.70;8.40;;;14.30;1.00;;;;;;4985684;28;20462;-79
2023/05/14 02:33:07;;;;;;;8.93;8.07;;;14.30;1.00;;;;;;4980347;28;20584;-79
2023/05/14 02:35:35;;;;;;;8.63;7.67;;;14.30;1.00;;;;;;4983691;28;20459;-78
2023/05/14 02:38:02;;;;;;;7.90;7.20;;;14.30;1.00;;;;;;4984148;28;20470;-79
2023/05/14 02:40:29;;;;;;;8.27;7.67;;;14.30;1.00;;;;;;4989579;28;20533;-78
2023/05/14 02:42:55;;;;;;;8.00;7.37;;;14.40;1.00;;;;;;4983370;28;20484;-79
2023/05/14 02:45:24;;;;;;;7.90;7.30;;;14.40;1.00;;;;;;4989408;28;20562;-78
2023/05/14 02:47:51;;;;;;;8.20;7.50;;;14.40;1.00;;;;;;4991333;28;20831;-79
2023/05/14 02:50:18;;;;;;;8.30;7.53;;;14.40;1.00;;;;;;4987126;28;20478;-77
2023/05/14 02:52:45;;;;;;;10.73;7.90;;;14.50;1.00;;;;;;4986643;28;20517;-79
2023/05/14 02:55:12;;;;;;;7.63;6.90;;;14.40;1.00;;;;;;4987070;28;20502;-78
2023/05/14 02:57:40;;;;;;;8.53;7.73;;;14.50;1.00;;;;;;4989281;28;20545;-78
2023/05/14 03:00:09;;;;;;;11.63;8.13;;;14.50;1.00;;;;;;4980663;28;21279;-79
2023/05/14 03:02:38;;;;;;;7.97;7.40;;;14.50;1.00;;;;;;4981858;28;21226;-78
2023/05/14 03:05:06;;;;;;;8.07;7.17;;;14.50;1.00;;;;;;4990895;28;20462;-78
2023/05/14 03:07:32;;;;;;;9.27;7.93;;;14.60;1.00;;;;;;4988247;28;21004;-79
2023/05/14 03:10:00;;;;;;;8.83;8.00;;;14.60;1.00;;;;;;4968363;28;20549;-78
2023/05/14 03:12:28;;;;;;;8.40;7.70;;;14.60;1.00;;;;;;4987208;28;20478;-78
2023/05/14 03:14:55;;;;;;;8.50;7.60;;;14.60;1.00;;;;;;4990867;28;20581;-80
2023/05/14 03:17:21;;;;;;;8.37;7.60;;;14.60;1.00;;;;;;4986617;28;21442;-79
2023/05/14 03:19:50;;;;;;;9.23;8.07;;;14.70;1.00;;;;;;4990846;28;20466;-79
2023/05/14 03:22:19;;;;;;;7.67;6.97;;;14.70;1.00;;;;;;4988000;28;21007;-78
2023/05/14 03:24:46;;;;;;;7.60;6.87;;;14.70;1.00;;;;;;4985454;28;20500;-78
2023/05/14 03:27:13;;;;;;;9.33;7.83;;;14.70;1.00;;;;;;4983537;28;20855;-78
2023/05/14 03:29:40;;;;;;;8.40;7.53;;;14.80;1.00;;;;;;4990181;28;20458;-79
2023/05/14 03:32:08;;;;;;;7.87;7.17;;;14.70;1.00;;;;;;4986424;28;20438;-78
2023/05/14 03:34:35;;;;;;;7.60;7.10;;;14.70;1.00;;;;;;4987274;28;20469;-78
2023/05/14 03:37:04;;;;;;;10.07;7.73;;;14.80;1.00;;;;;;4990534;28;20984;-79
2023/05/14 03:39:31;;;;;;;8.90;8.00;;;14.70;1.00;;;;;;4993222;28;20482;-79
2023/05/14 03:41:59;;;;;;;8.00;7.20;;;14.70;1.00;;;;;;4988411;28;22152;-78
2023/05/14 03:44:26;;;;;;;8.03;7.20;;;14.70;1.00;;;;;;4984943;28;20487;-78
2023/05/14 03:46:53;;;;;;;8.00;7.40;;;14.60;1.00;;;;;;4984374;28;20483;-78
2023/05/14 03:49:20;;;;;;;8.63;7.73;;;14.60;1.00;;;;;;4988885;28;20466;-78
2023/05/14 03:51:47;;;;;;;8.50;7.80;;;14.50;1.00;;;;;;4981275;28;20551;-78
2023/05/14 03:54:16;;;;;;;9.33;8.43;;;14.50;1.00;;;;;;4986990;28;20552;-78
2023/05/14 03:56:44;;;;;;;9.83;8.83;;;14.50;1.00;;;;;;4983879;28;20491;-79
2023/05/14 03:59:11;;;;;;;8.37;7.67;;;14.50;1.00;;;;;;4985821;28;20470;-78
2023/05/14 04:01:38;;;;;;;8.33;7.53;;;14.50;1.00;;;;;;4984531;28;20587;-77
2023/05/14 04:04:06;;;;;;;8.17;7.47;;;14.40;1.00;;;;;;4982772;28;20507;-78
2023/05/14 04:06:33;;;;;;;9.07;8.27;;;14.50;1.00;;;;;;4991454;28;20595;-78
2023/05/14 04:09:00;;;;;;;8.43;7.63;;;14.40;1.00;;;;;;4988071;28;20964;-79
2023/05/14 04:11:28;;;;;;;9.10;8.30;;;14.50;1.00;;;;;;4987423;28;20470;-78
2023/05/14 04:13:55;;;;;;;9.47;8.60;;;14.40;1.00;;;;;;4985978;28;20487;-79
2023/05/14 04:16:22;;;;;;;8.90;8.10;;;14.40;1.00;;;;;;4988015;28;20560;-79
2023/05/14 04:18:49;;;;;;;8.53;7.80;;;14.40;1.00;;;;;;4989848;28;20518;-80
2023/05/14 04:21:16;;;;;;;9.80;8.90;;;14.50;1.00;;;;;;4990530;28;20439;-78
2023/05/14 04:23:44;;;;;;;10.10;8.00;;;14.50;1.00;;;;;;4987677;28;20459;-78
2023/05/14 04:26:11;;;;;;;8.23;7.43;;;14.50;1.00;;;;;;4990835;28;20558;-78
2023/05/14 04:28:40;;;;;;;9.00;8.27;;;14.50;1.00;;;;;;4989643;28;20463;-78
2023/05/14 04:31:07;;;;;;;10.33;8.60;;;14.50;1.00;;;;;;4983937;28;20556;-78
2023/05/14 04:33:34;;;;;;;9.13;8.30;;;14.40;1.00;;;;;;4988362;28;20544;-76
2023/05/14 04:36:01;;;;;;;10.70;7.87;;;14.40;1.00;;;;;;4987735;28;20907;-79
2023/05/14 04:38:28;;;;;;;25.70;9.50;;;14.30;1.00;;;;;;4977458;28;20511;-78
2023/05/14 04:40:55;;;;;;;8.50;7.80;;;14.30;1.00;;;;;;4987969;28;20481;-79
2023/05/14 04:43:22;;;;;;;9.83;9.03;;;14.30;1.00;;;;;;4990595;28;20546;-78
2023/05/14 04:45:51;;;;;;;9.57;8.30;;;14.30;1.00;;;;;;4989942;28;20462;-79
2023/05/14 04:48:18;;;;;;;13.17;8.57;;;14.40;1.00;;;;;;4989778;28;20951;-79
2023/05/14 04:50:45;;;;;;;8.90;8.10;;;14.40;1.00;;;;;;4985028;28;21595;-79
2023/05/14 04:53:12;;;;;;;9.40;8.60;;;14.40;1.00;;;;;;4988687;28;20462;-79
2023/05/14 04:55:41;;;;;;;9.00;8.07;;;14.40;1.00;;;;;;4987224;28;20574;-79
2023/05/14 04:58:08;;;;;;;9.40;8.50;;;14.50;1.00;;;;;;4983541;28;20548;-79
2023/05/14 05:00:35;;;;;;;8.20;7.50;;;14.60;1.00;;;;;;4987882;28;21002;-78
2023/05/14 05:03:04;;;;;;;9.13;8.20;;;14.60;1.00;;;;;;4981601;28;20919;-78
2023/05/14 05:05:31;;;;;;;11.57;9.03;;;14.70;1.00;;;;;;4990843;28;20497;-79
2023/05/14 05:07:59;;;;;;;9.57;8.47;;;14.70;1.00;;;;;;4987909;28;20469;-78
2023/05/14 05:10:27;;;;;;;7.60;7.00;;;14.70;1.00;;;;;;4986324;28;20529;-79
2023/05/14 05:12:54;;;;;;;8.97;8.07;;;14.80;1.00;;;;;;4979308;28;20463;-78
2023/05/14 05:15:24;;;;;;;8.23;7.43;;;14.70;1.00;;;;;;4982616;28;21330;-79
2023/05/14 05:17:51;;;;;;;8.20;7.40;;;14.80;1.00;;;;;;4985698;28;20478;-79
2023/05/14 05:20:20;;;;;;;9.57;8.60;;;14.60;1.00;;;;;;4989755;28;20561;-79
2023/05/14 05:22:47;;;;;;;10.57;8.60;;;14.70;1.00;;;;;;4989702;28;20461;-79
2023/05/14 05:25:13;;;;;;;9.47;8.27;;;14.80;1.00;;;;;;4987570;28;20483;-78
2023/05/14 05:27:42;;;;;;;9.73;8.20;;;15.00;1.00;;;;;;4985585;28;20509;-78
2023/05/14 05:30:10;;;;;;;10.10;9.30;;;15.10;1.00;;;;;;4985858;28;20469;-79
2023/05/14 05:32:38;;;;;;;9.30;8.40;;;15.30;1.00;;;;;;4988845;28;20990;-78
2023/05/14 05:35:05;;;;;;;8.63;7.93;;;15.40;1.00;;;;;;4988419;28;20546;-78
2023/05/14 05:37:35;;;;;;;9.50;8.43;;;15.50;1.00;;;;;;4991987;28;20476;-78
2023/05/14 05:40:03;;;;;;;8.63;7.93;;;15.60;1.00;;;;;;4986891;28;20502;-79
2023/05/14 05:42:30;;;;;;;8.63;7.80;;;15.60;1.00;;;;;;4987281;28;20510;-79
2023/05/14 05:44:57;;;;;;;8.30;7.50;;;15.60;1.00;;;;;;4986246;28;20553;-79
2023/05/14 05:47:27;;;;;;;8.67;7.97;;;15.70;1.00;;;;;;4984732;28;20491;-78
2023/05/14 05:49:55;;;;;;;9.23;8.50;;;15.70;1.00;;;;;;4993616;28;20482;-78
2023/05/14 05:52:22;;;;;;;8.80;8.00;;;15.70;1.00;;;;;;4995351;28;20465;-79
2023/05/14 05:54:52;;;;;;;9.23;8.30;;;15.80;1.00;;;;;;4987980;28;20462;-78
2023/05/14 05:57:20;;;;;;;9.53;8.17;;;15.80;1.00;;;;;;4972652;28;20539;-78
2023/05/14 05:59:48;;;;;;;8.27;7.57;;;15.80;1.00;;;;;;4976158;28;20510;-77
2023/05/14 06:02:14;;;;;;;9.10;8.40;;;15.90;1.00;;;;;;4987819;28;20479;-78
2023/05/14 06:04:41;;;;;;;9.23;8.43;;;16.10;1.00;;;;;;4968654;28;20892;-78
2023/05/14 06:07:08;;;;;;;8.87;8.07;;;16.30;1.00;;;;;;4993610;28;20468;-76
2023/05/14 06:09:35;;;;;;;9.40;8.53;;;16.40;1.00;;;;;;4991946;28;20479;-78
2023/05/14 06:12:04;;;;;;;9.67;8.80;;;16.40;1.00;;;;;;4992255;28;20466;-79
2023/05/14 06:14:31;;;;;;;8.97;7.73;;;16.40;1.00;;;;;;4991511;28;20598;-78
2023/05/14 06:16:58;;;;;;;9.93;9.00;;;16.50;1.00;;;;;;4985629;28;21209;-79
2023/05/14 06:19:25;;;;;;;9.20;8.53;;;16.60;1.00;;;;;;4986455;28;20471;-78
2023/05/14 06:21:52;;;;;;;8.73;7.47;;;16.60;1.00;;;;;;4990053;28;20466;-77
2023/05/14 06:24:20;;;;;;;10.27;7.77;;;16.60;1.00;;;;;;4990446;28;20547;-77
2023/05/14 06:26:47;;;;;;;8.83;7.93;;;16.50;1.00;;;;;;4992752;28;20465;-78
2023/05/14 06:29:15;;;;;;;10.40;7.40;;;16.70;1.00;;;;;;4973367;28;20475;-77
2023/05/14 06:31:43;;;;;;;8.20;7.60;;;16.90;1.00;;;;;;4988723;28;20502;-79
2023/05/14 06:34:10;;;;;;;8.13;7.30;;;17.00;1.00;;;;;;4985355;28;20469;-79
2023/05/14 06:36:37;;;;;;;9.43;7.80;;;17.10;1.00;;;;;;4992968;28;20513;-77
2023/05/14 06:39:04;;;;;;;10.33;7.67;;;17.20;1.00;;;;;;4989995;28;20440;-77
2023/05/14 06:41:31;;;;;;;8.90;8.20;;;17.40;1.00;;;;;;4992578;28;20476;-78
2023/05/14 06:43:58;;;;;;;8.43;7.43;;;17.50;1.00;;;;;;4991761;28;20498;-78
2023/05/14 06:46:26;;;;;;;8.30;7.50;;;17.70;1.00;;;;;;4986175;28;20453;-77
2023/05/14 06:48:53;;;;;;;9.70;8.70;;;17.70;1.00;;;;;;4991295;28;20485;-78
2023/05/14 06:51:21;;;;;;;9.00;8.13;;;17.70;1.00;;;;;;4992355;28;20460;-78
2023/05/14 06:53:51;;;;;;;8.17;7.37;;;17.90;1.00;;;;;;4989478;28;20456;-79
2023/05/14 06:56:18;;;;;;;8.03;7.23;;;18.10;1.00;;;;;;4997226;28;20449;-79
2023/05/14 06:58:46;;;;;;;8.20;7.60;;;17.80;1.00;;;;;;4993459;28;20479;-78
2023/05/14 07:01:13;;;;;;;7.47;6.87;;;18.00;1.00;;;;;;4996070;28;20460;-77
2023/05/14 07:03:41;;;;;;;8.30;7.60;;;18.10;1.00;;;;;;4993083;28;22462;-79
2023/05/14 07:06:11;;;;;;;8.50;7.80;;;18.10;1.00;;;;;;4986592;28;20471;-79
2023/05/14 07:08:40;;;;;;;9.37;7.97;;;17.90;1.00;;;;;;4992163;28;20480;-77
2023/05/14 07:11:07;;;;;;;7.57;6.77;;;17.90;1.00;;;;;;4988242;28;20906;-77
2023/05/14 07:13:33;;;;;;;8.60;7.80;;;18.20;1.00;;;;;;4993510;28;20460;-77
2023/05/14 07:16:00;;;;;;;7.97;7.20;;;18.60;1.00;;;;;;4984637;28;20491;-79
2023/05/14 07:18:27;;;;;;;8.10;7.40;;;18.80;1.00;;;;;;4982583;28;20493;-80
2023/05/14 07:20:55;;;;;;;10.53;7.50;;;18.90;1.00;;;;;;4982105;28;20557;-79
2023/05/14 07:23:22;;;;;;;7.00;6.40;;;18.90;1.00;;;;;;4981695;28;20512;-78
2023/05/14 07:25:49;;;;;;;7.90;6.97;;;19.00;1.00;;;;;;4983768;28;20493;-80
2023/05/14 07:28:16;;;;;;;7.43;6.80;;;18.80;1.00;;;;;;4990031;28;20538;-80
2023/05/14 07:30:43;;;;;;;7.83;7.03;;;18.90;1.00;;;;;;4987608;28;20480;-79
2023/05/14 07:33:10;;;;;;;7.10;6.50;;;19.10;1.00;;;;;;4985254;28;20486;-79
2023/05/14 07:35:39;;;;;;;6.80;6.10;;;19.20;1.00;;;;;;4990753;28;20475;-79
2023/05/14 07:38:09;;;;;;;7.50;6.60;;;19.30;1.00;;;;;;4987268;28;20540;-79
2023/05/14 07:40:36;;;;;;;6.80;6.10;;;19.40;1.00;;;;;;4980684;28;20914;-80
2023/05/14 07:43:03;;;;;;;6.70;6.10;;;19.80;1.00;;;;;;4985444;28;20511;-79
2023/05/14 07:45:30;;;;;;;7.40;6.70;;;20.20;1.00;;;;;;4984216;28;21342;-79
2023/05/14 07:47:56;;;;;;;6.80;6.20;;;20.50;1.00;;;;;;4987732;28;20660;-78
2023/05/14 07:50:25;;;;;;;5.47;4.97;;;20.40;1.00;;;;;;4985608;28;20849;-78
2023/05/14 07:52:54;;;;;;;8.20;6.40;;;20.60;1.00;;;;;;4983082;28;20466;-78
2023/05/14 07:55:22;;;;;;;6.50;5.87;;;20.80;1.00;;;;;;4977519;28;20489;-78
2023/05/14 07:57:51;;;;;;;7.43;6.27;;;20.70;1.00;;;;;;4981537;28;20482;-80
2023/05/14 08:00:18;;;;;;;7.73;5.30;;;20.90;1.00;;;;;;4983881;28;21000;-79
2023/05/14 08:02:47;;;;;;;7.07;6.07;;;20.90;1.00;;;;;;4987882;28;20512;-79
2023/05/14 08:05:16;;;;;;;6.40;5.80;;;21.10;1.00;;;;;;4970879;28;20496;-78
2023/05/14 08:07:44;;;;;;;5.77;5.37;;;21.30;1.00;;;;;;4980637;28;20492;-76
2023/05/14 08:10:11;;;;;;;7.20;6.17;;;21.50;1.00;;;;;;4974727;28;20637;-78
2023/05/14 08:12:39;;;;;;;6.43;5.83;;;21.80;1.00;;;;;;4983925;28;20466;-77
2023/05/14 08:15:09;;;;;;;6.17;5.67;;;22.10;1.00;;;;;;4978003;28;20566;-78
2023/05/14 08:17:35;;;;;;;5.37;4.97;;;22.20;1.00;;;;;;4989415;28;20506;-77
2023/05/14 08:20:04;;;;;;;5.93;5.10;;;22.40;1.00;;;;;;4993370;28;20495;-78
2023/05/14 08:22:31;;;;;;;7.87;5.37;;;22.60;1.00;;;;;;4989993;28;20455;-77
2023/05/14 08:24:59;;;;;;;5.90;5.40;;;22.90;1.00;;;;;;4987939;28;20455;-78
2023/05/14 08:27:30;;;;;;;5.67;5.10;;;23.00;1.00;;;;;;4990985;28;20436;-78
2023/05/14 08:29:58;;;;;;;5.60;5.10;;;22.90;1.00;;;;;;4989543;28;20542;-79
2023/05/14 08:32:25;;;;;;;6.57;5.40;;;22.60;1.00;;;;;;4968226;28;20429;-77
2023/05/14 08:34:52;;;;;;;7.53;5.10;;;22.60;1.00;;;;;;4986763;28;20463;-78
2023/05/14 08:37:19;;;;;;;5.20;4.80;;;22.90;1.00;;;;;;4989464;28;20523;-78
2023/05/14 08:39:46;;;;;;;9.07;4.97;;;23.10;1.00;;;;;;4991012;28;20531;-78
2023/05/14 08:42:16;;;;;;;5.60;5.10;;;23.30;1.00;;;;;;4983511;28;20528;-77
2023/05/14 08:44:48;;;;;;;5.87;4.70;;;22.90;1.00;;;;;;4987777;28;20557;-79
2023/05/14 08:47:18;;;;;;;5.13;4.73;;;23.00;1.00;;;;;;4980461;28;20657;-78
2023/05/14 08:49:52;;;;;;;21.97;19.87;;;23.10;1.00;;;;;;4985507;28;20457;-77
2023/05/14 08:52:22;;;;;;;8.13;7.43;;;23.40;1.00;;;;;;4985958;28;20512;-79
2023/05/14 08:54:52;;;;;;;4.73;4.33;;;23.30;1.00;;;;;;4976533;28;20507;-79
2023/05/14 08:57:23;;;;;;;4.93;4.50;;;23.00;1.00;;;;;;4983745;28;20465;-78
2023/05/14 08:59:50;;;;;;;6.23;4.23;;;23.40;1.00;;;;;;4986151;28;20462;-79
2023/05/14 09:02:22;;;;;;;5.50;4.80;;;23.40;1.00;;;;;;4986654;28;20478;-79
2023/05/14 09:04:54;;;;;;;6.03;4.97;;;23.80;1.00;;;;;;4979637;28;20545;-77
2023/05/14 09:07:21;;;;;;;5.77;5.17;;;23.70;1.00;;;;;;4984049;28;20544;-79
2023/05/14 09:09:48;;;;;;;6.83;5.10;;;24.00;1.00;;;;;;4985729;28;20497;-78
2023/05/14 09:12:15;;;;;;;8.17;4.83;;;24.20;1.00;;;;;;4980699;28;20453;-80
2023/05/14 09:14:42;;;;;;;5.37;4.67;;;24.40;1.00;;;;;;4984101;28;20910;-77
2023/05/14 09:17:11;;;;;;;6.07;5.47;;;24.60;1.00;;;;;;4982760;28;20472;-78
2023/05/14 09:19:40;;;;;;;5.10;4.70;;;24.70;1.00;;;;;;4984989;28;20805;-78
2023/05/14 09:22:09;;;;;;;5.70;5.20;;;24.90;1.00;;;;;;4984135;28;21242;-79
2023/05/14 09:24:37;;;;;;;7.07;4.97;;;25.00;1.00;;;;;;4983336;28;20954;-77
2023/05/14 09:27:05;;;;;;;4.33;3.93;;;24.80;1.00;;;;;;4980006;28;20477;-78
2023/05/14 09:29:33;;;;;;;5.90;5.40;;;24.90;1.00;;;;;;4979251;28;21052;-78
2023/05/14 09:32:03;;;;;;;4.60;4.30;;;25.70;1.00;;;;;;4986428;28;20552;-79
2023/05/14 09:34:33;;;;;;;5.03;4.50;;;26.90;1.00;;;;;;4988026;28;20466;-78
2023/05/14 09:37:05;;;;;;;4.83;4.40;;;27.00;1.00;;;;;;4987416;28;20505;-78
2023/05/14 09:39:35;;;;;;;4.40;4.00;;;26.90;1.00;;;;;;4989862;28;20494;-78
2023/05/14 09:42:02;;;;;;;6.83;5.07;;;27.40;1.00;;;;;;4968474;28;20500;-79
2023/05/14 09:44:29;;;;;;;4.60;3.70;;;28.60;1.00;;;;;;4990225;28;20470;-79
2023/05/14 09:46:56;;;;;;;4.43;4.03;;;29.20;1.00;;;;;;4969392;28;20481;-79
2023/05/14 09:49:24;;;;;;;5.70;5.23;;;29.30;1.00;;;;;;4986799;28;20464;-78
2023/05/14 09:51:51;;;;;;;6.10;4.40;;;29.00;1.00;;;;;;4985442;28;20972;-78
2023/05/14 09:54:19;;;;;;;5.00;4.60;;;28.80;1.00;;;;;;4988866;28;20596;-79
2023/05/14 09:56:46;;;;;;;5.00;4.60;;;29.80;1.00;;;;;;4990963;28;20532;-79
2023/05/14 09:59:13;;;;;;;7.43;4.83;;;29.20;1.00;;;;;;4983485;28;20787;-79
2023/05/14 10:01:43;;;;;;;5.17;4.77;;;28.00;1.00;;;;;;4981075;28;20489;-78
2023/05/14 10:04:12;;;;;;;5.90;4.53;;;27.00;1.00;;;;;;4978179;28;20466;-79
2023/05/14 10:06:40;;;;;;;5.87;5.20;;;26.20;1.00;;;;;;4977558;28;20505;-79
2023/05/14 10:09:12;;;;;;;7.10;4.67;;;26.90;1.00;;;;;;4990120;28;20535;-79
2023/05/14 10:11:43;;;;;;;4.83;4.43;;;28.10;1.00;;;;;;4983386;28;20478;-79
2023/05/14 10:14:17;;;;;;;5.17;4.67;;;28.80;1.00;;;;;;4981722;28;20927;-79
2023/05/14 10:16:48;;;;;;;5.00;4.50;;;27.90;1.00;;;;;;4982935;28;21061;-79
2023/05/14 10:19:17;;;;;;;6.40;4.60;;;26.20;1.00;;;;;;4981072;28;20462;-78
2023/05/14 10:21:48;;;;;;;5.13;4.73;;;25.30;1.00;;;;;;4983392;28;20555;-79
2023/05/14 10:24:16;;;;;;;5.67;4.77;;;24.70;1.00;;;;;;4979482;28;20458;-79
2023/05/14 10:26:45;;;;;;;6.17;5.67;;;25.00;1.00;;;;;;4982153;28;20606;-78
2023/05/14 10:29:13;;;;;;;6.23;5.63;;;26.90;1.00;;;;;;4979742;28;20556;-78
2023/05/14 10:31:47;;;;;;;5.53;5.03;;;28.40;1.00;;;;;;4979117;28;20462;-78
2023/05/14 10:34:39;;;;;;;6.80;4.40;;;29.50;1.00;;;;;;4979534;28;20548;-79
2023/05/14 10:37:09;;;;;;;4.70;4.30;;;28.50;1.00;;;;;;4979435;28;20534;-79
2023/05/14 10:39:44;;;;;;;6.10;5.60;;;27.40;1.00;;;;;;4951453;28;20471;-80
2023/05/14 10:42:16;;;;;;;5.73;5.00;;;25.90;1.00;;;;;;4978486;28;20484;-77
2023/05/14 10:44:54;;;;;;;6.23;5.10;;;25.10;1.00;;;;;;4979487;28;20466;-80
2023/05/14 10:47:22;;;;;;;6.57;5.97;;;24.50;1.00;;;;;;4976527;28;20482;-78
2023/05/14 10:49:50;;;;;;;5.07;4.17;;;24.20;1.00;;;;;;4966833;28;20986;-78
2023/05/14 10:52:19;;;;;;;6.07;5.60;;;23.80;1.00;;;;;;4978786;28;20473;-80
2023/05/14 10:54:53;;;;;;;5.30;4.90;;;23.60;1.00;;;;;;4978019;28;20547;-78
2023/05/14 10:57:24;;;;;;;5.37;4.83;;;23.50;1.00;;;;;;4964876;28;20506;-78
2023/05/14 10:59:55;;;;;;;8.50;6.63;;;23.30;1.00;;;;;;4979226;28;20474;-77
2023/05/14 11:02:24;;;;;;;6.20;5.70;;;23.00;1.00;;;;;;4982603;28;20471;-78
2023/05/14 11:04:59;;;;;;;19.67;6.00;;;22.60;1.00;;;;;;4981025;28;20467;-78
2023/05/14 11:07:30;;;;;;;5.53;4.97;;;22.40;1.00;;;;;;4980214;28;21234;-78
2023/05/14 11:10:03;;;;;;;4.40;4.10;;;22.40;1.00;;;;;;4969949;28;20605;-81
2023/05/14 11:12:32;;;;;;;4.83;4.33;;;22.30;1.00;;;;;;4985786;28;20510;-81
2023/05/14 11:15:03;;;;;;;5.93;4.97;;;22.10;1.00;;;;;;4988360;28;20970;-80
2023/05/14 11:17:34;;;;;;;6.27;5.63;;;22.00;1.00;;;;;;4986572;28;20508;-82
2023/05/14 11:20:01;;;;;;;5.50;5.03;;;22.00;1.00;;;;;;4988817;28;20985;-81
2023/05/14 11:22:29;;;;;;;5.20;4.70;;;22.10;1.00;;;;;;4989186;28;20479;-81
2023/05/14 11:24:56;;;;;;;5.43;4.93;;;22.10;1.00;;;;;;4983739;28;20459;-82
2023/05/14 11:27:25;;;;;;;7.20;5.20;;;22.40;1.00;;;;;;4983057;28;20475;-81
2023/05/14 11:29:54;;;;;;;5.40;5.00;;;22.60;1.00;;;;;;4988469;28;20456;-82
2023/05/14 11:32:22;;;;;;;6.00;5.40;;;23.00;1.00;;;;;;4985808;28;20459;-84
2023/05/14 11:34:53;;;;;;;5.97;5.53;;;23.20;1.00;;;;;;4989704;28;20459;-81
2023/05/14 11:37:20;;;;;;;5.97;5.47;;;23.50;1.00;;;;;;4990378;28;20468;-82
2023/05/14 11:39:49;;;;;;;6.33;5.73;;;23.40;1.00;;;;;;4985500;28;20971;-79
2023/05/14 11:42:18;;;;;;;6.60;5.07;;;23.40;1.00;;;;;;4982478;28;20911;-79
2023/05/14 11:44:47;;;;;;;5.53;5.03;;;23.00;1.00;;;;;;4988343;28;20474;-79
2023/05/14 11:47:17;;;;;;;5.77;5.27;;;22.90;1.00;;;;;;4987270;28;20477;-79
2023/05/14 11:49:47;;;;;;;6.10;5.30;;;22.70;1.00;;;;;;4994304;28;20867;-79
2023/05/14 11:52:18;;;;;;;7.10;5.87;;;22.60;1.00;;;;;;4985568;28;20479;-78
2023/05/14 11:54:45;;;;;;;6.40;5.90;;;22.60;1.00;;;;;;4984627;28;20479;-77
2023/05/14 11:57:14;;;;;;;6.07;5.27;;;22.60;1.00;;;;;;4983939;28;20860;-74
2023/05/14 11:59:41;;;;;;;6.83;6.20;;;22.60;1.00;;;;;;4986935;28;20467;-74
2023/05/14 12:07:46;;;;;;;5.40;5.00;;;22.90;1.00;;;;;;5479941;23;20478;-77
2023/05/14 12:10:14;;;;;;;5.93;5.50;;;23.30;1.00;;;;;;5006511;28;20504;-76
2023/05/14 12:12:47;;;;;;;5.70;5.20;;;23.90;1.00;;;;;;4989111;28;20629;-77
2023/05/14 12:15:15;;;;;;;7.67;5.73;;;24.50;1.00;;;;;;4999738;28;21005;-78
2023/05/14 12:17:43;;;;;;;5.73;5.27;;;25.10;1.00;;;;;;5005753;28;20480;-78
2023/05/14 12:20:13;;;;;;;5.47;4.97;;;26.20;1.00;;;;;;5007574;28;20471;-78
2023/05/14 12:22:42;;;;;;;5.20;4.70;;;26.50;1.00;;;;;;4983577;28;20466;-78
2023/05/14 12:25:16;;;;;;;10.30;5.07;;;26.60;1.00;;;;;;5006101;28;20473;-78
2023/05/14 12:27:45;;;;;;;6.80;5.30;;;26.10;1.00;;;;;;5005512;28;20480;-78
2023/05/14 12:30:13;;;;;;;4.63;4.20;;;25.00;1.00;;;;;;4980083;28;20879;-79
2023/05/14 12:32:41;;;;;;;5.57;5.17;;;24.20;1.00;;;;;;5005784;28;20615;-78
2023/05/14 12:35:09;;;;;;;5.63;5.17;;;24.00;1.00;;;;;;5010207;28;21115;-77
2023/05/14 12:37:38;;;;;;;6.60;5.00;;;23.70;1.00;;;;;;5013127;28;20974;-79
2023/05/14 12:40:08;;;;;;;5.17;4.73;;;23.30;1.00;;;;;;5013424;28;20455;-90
2023/05/14 12:42:36;;;;;;;5.40;4.90;;;23.10;1.00;;;;;;5020229;28;20436;-88
2023/05/14 12:45:07;;;;;;;5.63;5.13;;;23.10;1.00;;;;;;5018771;28;20434;-91
2023/05/14 12:47:34;;;;;;;5.17;4.73;;;23.00;1.00;;;;;;5015215;28;20484;-88
2023/05/14 12:50:02;;;;;;;5.43;4.93;;;23.30;1.00;;;;;;5014382;28;20451;-86
2023/05/14 12:52:32;;;;;;;6.87;4.93;;;23.50;1.00;;;;;;5022688;28;20474;-89
2023/05/14 12:55:04;;;;;;;6.37;5.17;;;23.80;1.00;;;;;;5014213;28;20988;-88
2023/05/14 12:57:33;;;;;;;5.23;4.73;;;24.20;1.00;;;;;;5026357;28;20465;-89
2023/05/14 13:00:05;;;;;;;6.10;5.47;;;24.10;1.00;;;;;;5021378;28;21041;-88
2023/05/14 13:02:32;;;;;;;4.57;4.27;;;24.00;1.00;;;;;;5018519;28;20524;-86
2023/05/14 13:05:01;;;;;;;5.23;4.73;;;23.80;1.00;;;;;;5020879;28;20467;-89
2023/05/14 13:07:28;;;;;;;4.20;3.80;;;23.50;1.00;;;;;;5024419;28;20443;-89